Delray Beach, FL

10:39 AM EST on January 26, 2015 (GMT -0500)
Pompano Beach | Change Station
CLOSE
Current Station
Airport
Location: Pompano Beach,
Elevation: 20 ft
Nearby Weather Stations

Elev 20 ft 26.25 °N, 80.11 °W | Updated 46 minutes ago

Overcast
Overcast
71 °F
Feels Like 71 °F
N
13
Wind Variable Wind from SW
Gusts 22 mph

Today
High -- | Low -- °F
--% Chance of Precip.
Yesterday
High -- | Low -- °F
Precip. -- in
7:07 AM 5:58 PM
Waxing Crescent, 44% visible
Pressure 29.94 in
Visibility 10.0 miles
Clouds Scattered Clouds 3500 ft
Dew Point 56 °F
Humidity 59%
Rainfall 0.00 in
Snow Depth Not available.
UV 3 out of 12
Pollen 7.10 out of 12
Air Quality Not available.
Flu Activity Not available.
METAR KPMP 261453Z 23011G19KT 10SM SCT035 22/13 A2994 RMK AO2 SLP138 T02170133 53000 $

More Conditions Fewer Conditions

Pressure 29.94 in
Visibility 10.0 miles
Clouds Scattered Clouds 3500 ft
Dew Point 56 °F
Humidity 59%
Rainfall 0.00 in
Snow Depth Not available.
UV 3 out of 12
Pollen 7.10 out of 12
Air Quality Not available.
Flu Activity Not available.
METAR KPMP 261453Z 23011G19KT 10SM SCT035 22/13 A2994 RMK AO2 SLP138 T02170133 53000 $

More Conditions Fewer Conditions

Nowcast | as of 10:12 am EST on January 26, 2015

Showers were moving quickly eastward into the East Coast Metro areas this morning. Gusty winds up to 35 mph and brief heavy downpours will accompany these showers. Rainfall will end around noon...with breezy to windy conditions continuing through the afternoon.

×

10-Day Weather Forecast

Almanac

Astronomy

Jan. 26, 2015 Rise Set
Actual Time
Civil Twilight
Nautical Twilight
Astronomical Twilight
Moon
Length of Visible Light
Length of Day
Tomorrow will be .
, % of the Moon is Illuminated

Today's Extremes

State Highs State Lows

Community

WunderPhotos

Upload Photos

1,790,246 photos uploaded!

WunderBlogs® & News

Nearby

Air Quality

  Air Quality AQ Index Pollutant
Not available.

Snow Depth

Station Depth Elevation

Earthquake Activity

City Distance Mag. Time & Date
Minimum magnitude displayed is 2.5.

Coastal Water Temperatures

Place Temperature

Nearby Weather Stations